sensor_id;sensor_type;location;lat;lon;timestamp;P1;durP1;ratioP1;P2;durP2;ratioP2
18190;SDS011;47004;51.366;12.348;2023-10-31T00:01:50;13.93;;;7.13;;
18190;SDS011;47004;51.366;12.348;2023-10-31T00:03:52;10.67;;;6.20;;
18190;SDS011;47004;51.366;12.348;2023-10-31T00:05:54;11.50;;;6.87;;
18190;SDS011;47004;51.366;12.348;2023-10-31T00:07:56;10.53;;;6.60;;
18190;SDS011;47004;51.366;12.348;2023-10-31T00:09:58;11.07;;;6.53;;
18190;SDS011;47004;51.366;12.348;2023-10-31T00:12:01;14.23;;;6.47;;
18190;SDS011;47004;51.366;12.348;2023-10-31T00:14:02;10.43;;;6.77;;
18190;SDS011;47004;51.366;12.348;2023-10-31T00:16:04;12.17;;;6.83;;
18190;SDS011;47004;51.366;12.348;2023-10-31T00:18:07;10.67;;;6.13;;
18190;SDS011;47004;51.366;12.348;2023-10-31T00:20:09;11.73;;;6.67;;
18190;SDS011;47004;51.366;12.348;2023-10-31T00:22:10;10.50;;;6.67;;
18190;SDS011;47004;51.366;12.348;2023-10-31T00:24:12;10.20;;;5.93;;
18190;SDS011;47004;51.366;12.348;2023-10-31T00:26:14;10.80;;;6.43;;
18190;SDS011;47004;51.366;12.348;2023-10-31T00:28:17;11.27;;;6.10;;
18190;SDS011;47004;51.366;12.348;2023-10-31T00:30:19;10.23;;;6.93;;
18190;SDS011;47004;51.366;12.348;2023-10-31T00:32:21;11.67;;;7.27;;
18190;SDS011;47004;51.366;12.348;2023-10-31T00:34:23;19.87;;;9.07;;
18190;SDS011;47004;51.366;12.348;2023-10-31T00:36:25;12.47;;;7.87;;
18190;SDS011;47004;51.366;12.348;2023-10-31T00:38:27;14.67;;;8.43;;
18190;SDS011;47004;51.366;12.348;2023-10-31T00:40:29;16.20;;;8.20;;
18190;SDS011;47004;51.366;12.348;2023-10-31T00:42:31;15.27;;;8.67;;
18190;SDS011;47004;51.366;12.348;2023-10-31T00:44:34;13.07;;;7.87;;
18190;SDS011;47004;51.366;12.348;2023-10-31T00:46:36;13.90;;;8.67;;
18190;SDS011;47004;51.366;12.348;2023-10-31T00:48:37;16.50;;;10.27;;
18190;SDS011;47004;51.366;12.348;2023-10-31T00:50:39;16.53;;;8.77;;
18190;SDS011;47004;51.366;12.348;2023-10-31T00:52:41;21.03;;;11.10;;
18190;SDS011;47004;51.366;12.348;2023-10-31T00:54:45;15.30;;;9.33;;
18190;SDS011;47004;51.366;12.348;2023-10-31T00:56:47;20.53;;;10.80;;
18190;SDS011;47004;51.366;12.348;2023-10-31T00:58:49;18.07;;;11.33;;
18190;SDS011;47004;51.366;12.348;2023-10-31T01:00:52;17.07;;;9.80;;
18190;SDS011;47004;51.366;12.348;2023-10-31T01:02:55;17.33;;;11.37;;
18190;SDS011;47004;51.366;12.348;2023-10-31T01:04:57;20.17;;;11.87;;
18190;SDS011;47004;51.366;12.348;2023-10-31T01:06:59;20.10;;;11.83;;
18190;SDS011;47004;51.366;12.348;2023-10-31T01:09:01;22.10;;;11.90;;
18190;SDS011;47004;51.366;12.348;2023-10-31T01:11:03;21.43;;;12.93;;
18190;SDS011;47004;51.366;12.348;2023-10-31T01:13:05;21.20;;;12.47;;
18190;SDS011;47004;51.366;12.348;2023-10-31T01:15:06;22.33;;;13.47;;
18190;SDS011;47004;51.366;12.348;2023-10-31T01:17:10;24.97;;;14.37;;
18190;SDS011;47004;51.366;12.348;2023-10-31T01:19:12;22.30;;;13.27;;
18190;SDS011;47004;51.366;12.348;2023-10-31T01:21:14;32.83;;;16.80;;
18190;SDS011;47004;51.366;12.348;2023-10-31T01:23:16;28.47;;;15.97;;
18190;SDS011;47004;51.366;12.348;2023-10-31T01:25:18;28.30;;;17.13;;
18190;SDS011;47004;51.366;12.348;2023-10-31T01:27:20;32.37;;;17.30;;
18190;SDS011;47004;51.366;12.348;2023-10-31T01:29:22;35.30;;;17.87;;
18190;SDS011;47004;51.366;12.348;2023-10-31T01:31:23;27.83;;;16.83;;
18190;SDS011;47004;51.366;12.348;2023-10-31T01:33:26;25.80;;;15.47;;
18190;SDS011;47004;51.366;12.348;2023-10-31T01:35:28;27.53;;;15.27;;
18190;SDS011;47004;51.366;12.348;2023-10-31T01:37:30;34.17;;;17.00;;
18190;SDS011;47004;51.366;12.348;2023-10-31T01:39:31;34.07;;;17.57;;
18190;SDS011;47004;51.366;12.348;2023-10-31T01:41:33;32.53;;;18.77;;
18190;SDS011;47004;51.366;12.348;2023-10-31T01:43:35;38.87;;;18.93;;
18190;SDS011;47004;51.366;12.348;2023-10-31T01:45:38;36.63;;;18.93;;
18190;SDS011;47004;51.366;12.348;2023-10-31T01:47:40;38.57;;;19.77;;
18190;SDS011;47004;51.366;12.348;2023-10-31T01:49:43;33.33;;;19.40;;
18190;SDS011;47004;51.366;12.348;2023-10-31T01:51:45;31.10;;;18.17;;
18190;SDS011;47004;51.366;12.348;2023-10-31T01:53:47;34.90;;;16.80;;
18190;SDS011;47004;51.366;12.348;2023-10-31T01:55:49;32.70;;;17.47;;
18190;SDS011;47004;51.366;12.348;2023-10-31T01:57:51;34.67;;;17.80;;
18190;SDS011;47004;51.366;12.348;2023-10-31T01:59:53;27.33;;;16.40;;
18190;SDS011;47004;51.366;12.348;2023-10-31T02:01:54;30.10;;;16.43;;
18190;SDS011;47004;51.366;12.348;2023-10-31T02:03:58;32.63;;;16.47;;
18190;SDS011;47004;51.366;12.348;2023-10-31T02:06:04;34.53;;;16.97;;
18190;SDS011;47004;51.366;12.348;2023-10-31T02:08:06;29.50;;;16.50;;
18190;SDS011;47004;51.366;12.348;2023-10-31T02:10:08;32.87;;;17.37;;
18190;SDS011;47004;51.366;12.348;2023-10-31T02:12:10;36.77;;;18.40;;
18190;SDS011;47004;51.366;12.348;2023-10-31T02:14:12;36.50;;;17.97;;
18190;SDS011;47004;51.366;12.348;2023-10-31T02:16:13;35.80;;;17.90;;
18190;SDS011;47004;51.366;12.348;2023-10-31T02:18:15;33.80;;;18.30;;
18190;SDS011;47004;51.366;12.348;2023-10-31T02:20:18;32.73;;;16.87;;
18190;SDS011;47004;51.366;12.348;2023-10-31T02:22:21;34.00;;;16.90;;
18190;SDS011;47004;51.366;12.348;2023-10-31T02:24:23;35.80;;;17.90;;
18190;SDS011;47004;51.366;12.348;2023-10-31T02:26:28;37.77;;;18.33;;
18190;SDS011;47004;51.366;12.348;2023-10-31T02:28:30;39.33;;;19.07;;
18190;SDS011;47004;51.366;12.348;2023-10-31T02:30:33;34.33;;;17.53;;
18190;SDS011;47004;51.366;12.348;2023-10-31T02:32:36;36.17;;;19.03;;
18190;SDS011;47004;51.366;12.348;2023-10-31T02:34:37;36.43;;;18.43;;
18190;SDS011;47004;51.366;12.348;2023-10-31T02:36:39;45.87;;;20.57;;
18190;SDS011;47004;51.366;12.348;2023-10-31T02:38:42;41.80;;;21.23;;
18190;SDS011;47004;51.366;12.348;2023-10-31T02:40:44;45.47;;;22.77;;
18190;SDS011;47004;51.366;12.348;2023-10-31T02:42:45;42.03;;;20.60;;
18190;SDS011;47004;51.366;12.348;2023-10-31T02:44:47;48.77;;;21.83;;
18190;SDS011;47004;51.366;12.348;2023-10-31T02:46:48;36.13;;;20.20;;
18190;SDS011;47004;51.366;12.348;2023-10-31T02:48:50;38.83;;;20.50;;
18190;SDS011;47004;51.366;12.348;2023-10-31T02:50:52;34.83;;;18.47;;
18190;SDS011;47004;51.366;12.348;2023-10-31T02:52:54;38.83;;;18.53;;
18190;SDS011;47004;51.366;12.348;2023-10-31T02:54:57;35.37;;;18.93;;
18190;SDS011;47004;51.366;12.348;2023-10-31T02:56:59;34.80;;;18.00;;
18190;SDS011;47004;51.366;12.348;2023-10-31T02:59:00;32.30;;;17.00;;
18190;SDS011;47004;51.366;12.348;2023-10-31T03:01:02;26.13;;;14.80;;
18190;SDS011;47004;51.366;12.348;2023-10-31T03:03:04;29.23;;;17.07;;
18190;SDS011;47004;51.366;12.348;2023-10-31T03:05:06;27.23;;;14.93;;
18190;SDS011;47004;51.366;12.348;2023-10-31T03:07:08;26.93;;;14.63;;
18190;SDS011;47004;51.366;12.348;2023-10-31T03:09:10;31.50;;;14.73;;
18190;SDS011;47004;51.366;12.348;2023-10-31T03:11:21;28.37;;;13.63;;
18190;SDS011;47004;51.366;12.348;2023-10-31T03:13:22;25.57;;;12.90;;
18190;SDS011;47004;51.366;12.348;2023-10-31T03:15:24;21.67;;;11.97;;
18190;SDS011;47004;51.366;12.348;2023-10-31T03:17:27;20.37;;;12.20;;
18190;SDS011;47004;51.366;12.348;2023-10-31T03:19:29;19.37;;;11.83;;
18190;SDS011;47004;51.366;12.348;2023-10-31T03:21:31;26.80;;;12.80;;
18190;SDS011;47004;51.366;12.348;2023-10-31T03:23:33;20.27;;;11.83;;
18190;SDS011;47004;51.366;12.348;2023-10-31T03:25:35;23.00;;;12.27;;
18190;SDS011;47004;51.366;12.348;2023-10-31T03:27:39;26.83;;;11.80;;
18190;SDS011;47004;51.366;12.348;2023-10-31T03:29:41;22.67;;;11.83;;
18190;SDS011;47004;51.366;12.348;2023-10-31T03:31:45;19.30;;;11.67;;
18190;SDS011;47004;51.366;12.348;2023-10-31T03:33:47;25.03;;;12.37;;
18190;SDS011;47004;51.366;12.348;2023-10-31T03:35:49;19.57;;;10.93;;
18190;SDS011;47004;51.366;12.348;2023-10-31T03:37:51;18.90;;;11.37;;
18190;SDS011;47004;51.366;12.348;2023-10-31T03:39:53;16.30;;;10.50;;
18190;SDS011;47004;51.366;12.348;2023-10-31T03:41:55;22.53;;;11.43;;
18190;SDS011;47004;51.366;12.348;2023-10-31T03:43:58;22.53;;;11.13;;
18190;SDS011;47004;51.366;12.348;2023-10-31T03:46:00;24.60;;;13.13;;
18190;SDS011;47004;51.366;12.348;2023-10-31T03:48:02;18.10;;;10.47;;
18190;SDS011;47004;51.366;12.348;2023-10-31T03:50:05;26.23;;;11.00;;
18190;SDS011;47004;51.366;12.348;2023-10-31T03:52:09;19.97;;;11.20;;
18190;SDS011;47004;51.366;12.348;2023-10-31T03:54:10;20.10;;;10.73;;
18190;SDS011;47004;51.366;12.348;2023-10-31T03:56:13;20.43;;;11.07;;
18190;SDS011;47004;51.366;12.348;2023-10-31T03:58:15;21.87;;;11.53;;
18190;SDS011;47004;51.366;12.348;2023-10-31T04:00:18;20.00;;;11.20;;
18190;SDS011;47004;51.366;12.348;2023-10-31T04:02:20;22.23;;;11.93;;
18190;SDS011;47004;51.366;12.348;2023-10-31T04:04:22;22.67;;;11.50;;
18190;SDS011;47004;51.366;12.348;2023-10-31T04:06:24;20.60;;;11.23;;
18190;SDS011;47004;51.366;12.348;2023-10-31T04:08:26;23.33;;;11.00;;
18190;SDS011;47004;51.366;12.348;2023-10-31T04:10:28;18.53;;;10.90;;
18190;SDS011;47004;51.366;12.348;2023-10-31T04:12:30;17.93;;;10.33;;
18190;SDS011;47004;51.366;12.348;2023-10-31T04:14:31;24.60;;;11.60;;
18190;SDS011;47004;51.366;12.348;2023-10-31T04:16:38;16.17;;;9.80;;
18190;SDS011;47004;51.366;12.348;2023-10-31T04:18:40;18.53;;;9.80;;
18190;SDS011;47004;51.366;12.348;2023-10-31T04:20:42;17.97;;;8.90;;
18190;SDS011;47004;51.366;12.348;2023-10-31T04:22:44;13.80;;;7.93;;
18190;SDS011;47004;51.366;12.348;2023-10-31T04:24:45;14.27;;;7.13;;
18190;SDS011;47004;51.366;12.348;2023-10-31T04:26:48;12.07;;;6.23;;
18190;SDS011;47004;51.366;12.348;2023-10-31T04:28:50;8.10;;;5.37;;
18190;SDS011;47004;51.366;12.348;2023-10-31T04:30:52;8.90;;;4.93;;
18190;SDS011;47004;51.366;12.348;2023-10-31T04:32:55;6.77;;;4.47;;
18190;SDS011;47004;51.366;12.348;2023-10-31T04:34:57;7.20;;;3.90;;
18190;SDS011;47004;51.366;12.348;2023-10-31T04:36:59;5.57;;;3.77;;
18190;SDS011;47004;51.366;12.348;2023-10-31T04:39:01;6.67;;;3.90;;
18190;SDS011;47004;51.366;12.348;2023-10-31T04:41:02;5.97;;;3.80;;
18190;SDS011;47004;51.366;12.348;2023-10-31T04:43:05;5.80;;;3.53;;
18190;SDS011;47004;51.366;12.348;2023-10-31T04:45:07;4.73;;;3.47;;
18190;SDS011;47004;51.366;12.348;2023-10-31T04:47:10;5.70;;;3.20;;
18190;SDS011;47004;51.366;12.348;2023-10-31T04:49:13;7.33;;;3.90;;
18190;SDS011;47004;51.366;12.348;2023-10-31T04:51:16;4.00;;;3.13;;
18190;SDS011;47004;51.366;12.348;2023-10-31T04:53:18;6.33;;;3.13;;
18190;SDS011;47004;51.366;12.348;2023-10-31T04:55:20;5.87;;;3.43;;
18190;SDS011;47004;51.366;12.348;2023-10-31T04:57:22;6.20;;;3.10;;
18190;SDS011;47004;51.366;12.348;2023-10-31T04:59:23;5.50;;;3.20;;
18190;SDS011;47004;51.366;12.348;2023-10-31T05:01:25;4.57;;;2.87;;
18190;SDS011;47004;51.366;12.348;2023-10-31T05:03:27;3.37;;;2.53;;
18190;SDS011;47004;51.366;12.348;2023-10-31T05:05:30;3.77;;;2.70;;
18190;SDS011;47004;51.366;12.348;2023-10-31T05:07:32;3.50;;;2.33;;
18190;SDS011;47004;51.366;12.348;2023-10-31T05:09:33;3.87;;;2.10;;
18190;SDS011;47004;51.366;12.348;2023-10-31T05:11:35;3.83;;;2.40;;
18190;SDS011;47004;51.366;12.348;2023-10-31T05:13:38;5.17;;;2.00;;
18190;SDS011;47004;51.366;12.348;2023-10-31T05:15:39;3.00;;;1.90;;
18190;SDS011;47004;51.366;12.348;2023-10-31T05:17:41;4.77;;;1.90;;
18190;SDS011;47004;51.366;12.348;2023-10-31T05:19:43;2.30;;;1.50;;
18190;SDS011;47004;51.366;12.348;2023-10-31T05:21:47;2.73;;;1.83;;
18190;SDS011;47004;51.366;12.348;2023-10-31T05:23:48;3.17;;;1.70;;
18190;SDS011;47004;51.366;12.348;2023-10-31T05:25:50;8.53;;;1.80;;
18190;SDS011;47004;51.366;12.348;2023-10-31T05:27:52;3.33;;;1.57;;
18190;SDS011;47004;51.366;12.348;2023-10-31T05:29:53;2.57;;;1.70;;
18190;SDS011;47004;51.366;12.348;2023-10-31T05:31:55;2.67;;;1.70;;
18190;SDS011;47004;51.366;12.348;2023-10-31T05:33:56;3.93;;;1.80;;
18190;SDS011;47004;51.366;12.348;2023-10-31T05:35:57;2.20;;;1.40;;
18190;SDS011;47004;51.366;12.348;2023-10-31T05:38:01;3.17;;;1.50;;
18190;SDS011;47004;51.366;12.348;2023-10-31T05:40:03;2.80;;;1.50;;
18190;SDS011;47004;51.366;12.348;2023-10-31T05:42:06;1.90;;;1.50;;
18190;SDS011;47004;51.366;12.348;2023-10-31T05:44:08;1.70;;;1.50;;
18190;SDS011;47004;51.366;12.348;2023-10-31T05:46:10;2.40;;;1.37;;
18190;SDS011;47004;51.366;12.348;2023-10-31T05:48:14;1.37;;;1.20;;
18190;SDS011;47004;51.366;12.348;2023-10-31T05:50:16;2.50;;;1.50;;
18190;SDS011;47004;51.366;12.348;2023-10-31T05:52:18;2.10;;;1.30;;
18190;SDS011;47004;51.366;12.348;2023-10-31T05:54:22;1.83;;;1.10;;
18190;SDS011;47004;51.366;12.348;2023-10-31T05:56:25;1.60;;;1.10;;
18190;SDS011;47004;51.366;12.348;2023-10-31T05:58:26;2.37;;;1.20;;
18190;SDS011;47004;51.366;12.348;2023-10-31T06:00:28;3.93;;;1.10;;
18190;SDS011;47004;51.366;12.348;2023-10-31T06:02:30;4.23;;;1.40;;
18190;SDS011;47004;51.366;12.348;2023-10-31T06:04:32;1.80;;;1.20;;
18190;SDS011;47004;51.366;12.348;2023-10-31T06:06:37;1.80;;;1.10;;
18190;SDS011;47004;51.366;12.348;2023-10-31T06:08:39;2.93;;;1.07;;
18190;SDS011;47004;51.366;12.348;2023-10-31T06:10:43;3.00;;;1.00;;
18190;SDS011;47004;51.366;12.348;2023-10-31T06:12:45;2.40;;;1.20;;
18190;SDS011;47004;51.366;12.348;2023-10-31T06:14:47;1.83;;;1.10;;
18190;SDS011;47004;51.366;12.348;2023-10-31T06:16:48;3.33;;;0.90;;
18190;SDS011;47004;51.366;12.348;2023-10-31T06:18:50;2.40;;;1.50;;
18190;SDS011;47004;51.366;12.348;2023-10-31T06:20:52;1.83;;;1.10;;
18190;SDS011;47004;51.366;12.348;2023-10-31T06:22:53;1.80;;;1.07;;
18190;SDS011;47004;51.366;12.348;2023-10-31T06:24:55;2.60;;;1.40;;
18190;SDS011;47004;51.366;12.348;2023-10-31T06:26:59;5.60;;;1.27;;
18190;SDS011;47004;51.366;12.348;2023-10-31T06:29:01;1.20;;;0.90;;
18190;SDS011;47004;51.366;12.348;2023-10-31T06:31:03;1.70;;;1.20;;
18190;SDS011;47004;51.366;12.348;2023-10-31T06:33:05;1.07;;;1.00;;
18190;SDS011;47004;51.366;12.348;2023-10-31T06:35:09;2.20;;;1.00;;
18190;SDS011;47004;51.366;12.348;2023-10-31T06:37:11;1.37;;;1.10;;
18190;SDS011;47004;51.366;12.348;2023-10-31T06:39:12;1.93;;;1.00;;
18190;SDS011;47004;51.366;12.348;2023-10-31T06:41:13;1.80;;;1.33;;
18190;SDS011;47004;51.366;12.348;2023-10-31T06:43:17;1.47;;;1.00;;
18190;SDS011;47004;51.366;12.348;2023-10-31T06:45:18;1.10;;;1.00;;
18190;SDS011;47004;51.366;12.348;2023-10-31T06:47:20;1.53;;;1.00;;
18190;SDS011;47004;51.366;12.348;2023-10-31T06:49:22;1.13;;;1.03;;
18190;SDS011;47004;51.366;12.348;2023-10-31T06:51:24;1.10;;;1.00;;
18190;SDS011;47004;51.366;12.348;2023-10-31T06:53:25;1.20;;;1.10;;
18190;SDS011;47004;51.366;12.348;2023-10-31T06:55:27;1.33;;;1.00;;
18190;SDS011;47004;51.366;12.348;2023-10-31T06:57:28;2.13;;;1.10;;
18190;SDS011;47004;51.366;12.348;2023-10-31T06:59:32;4.23;;;1.00;;
18190;SDS011;47004;51.366;12.348;2023-10-31T07:01:35;1.00;;;0.90;;
18190;SDS011;47004;51.366;12.348;2023-10-31T07:03:37;4.13;;;0.93;;
18190;SDS011;47004;51.366;12.348;2023-10-31T07:05:39;2.17;;;1.27;;
18190;SDS011;47004;51.366;12.348;2023-10-31T07:07:41;3.87;;;1.10;;
18190;SDS011;47004;51.366;12.348;2023-10-31T07:09:42;2.13;;;0.97;;
18190;SDS011;47004;51.366;12.348;2023-10-31T07:11:44;2.17;;;1.20;;
18190;SDS011;47004;51.366;12.348;2023-10-31T07:13:46;2.40;;;1.00;;
18190;SDS011;47004;51.366;12.348;2023-10-31T07:15:49;1.00;;;0.80;;
18190;SDS011;47004;51.366;12.348;2023-10-31T07:17:51;1.33;;;1.00;;
18190;SDS011;47004;51.366;12.348;2023-10-31T07:19:54;1.60;;;0.97;;
18190;SDS011;47004;51.366;12.348;2023-10-31T07:21:55;1.30;;;1.00;;
18190;SDS011;47004;51.366;12.348;2023-10-31T07:23:57;1.43;;;1.07;;
18190;SDS011;47004;51.366;12.348;2023-10-31T07:25:59;1.43;;;0.90;;
18190;SDS011;47004;51.366;12.348;2023-10-31T07:28:01;4.17;;;1.07;;
18190;SDS011;47004;51.366;12.348;2023-10-31T07:30:04;1.03;;;0.80;;
18190;SDS011;47004;51.366;12.348;2023-10-31T07:32:08;1.33;;;0.70;;
18190;SDS011;47004;51.366;12.348;2023-10-31T07:34:10;2.23;;;0.73;;
18190;SDS011;47004;51.366;12.348;2023-10-31T07:36:12;1.17;;;0.60;;
18190;SDS011;47004;51.366;12.348;2023-10-31T07:38:14;1.17;;;0.80;;
18190;SDS011;47004;51.366;12.348;2023-10-31T07:40:16;1.60;;;1.00;;
18190;SDS011;47004;51.366;12.348;2023-10-31T07:42:18;2.57;;;1.00;;
18190;SDS011;47004;51.366;12.348;2023-10-31T07:44:20;1.40;;;0.60;;
18190;SDS011;47004;51.366;12.348;2023-10-31T07:46:22;0.83;;;0.50;;
18190;SDS011;47004;51.366;12.348;2023-10-31T07:48:24;2.30;;;0.77;;
18190;SDS011;47004;51.366;12.348;2023-10-31T07:50:26;2.00;;;0.70;;
18190;SDS011;47004;51.366;12.348;2023-10-31T07:52:28;2.00;;;0.60;;
18190;SDS011;47004;51.366;12.348;2023-10-31T07:54:30;1.43;;;0.60;;
18190;SDS011;47004;51.366;12.348;2023-10-31T07:56:31;2.30;;;0.57;;
18190;SDS011;47004;51.366;12.348;2023-10-31T07:58:34;1.83;;;0.70;;
18190;SDS011;47004;51.366;12.348;2023-10-31T08:00:36;1.33;;;0.90;;
18190;SDS011;47004;51.366;12.348;2023-10-31T08:02:39;0.70;;;0.50;;
18190;SDS011;47004;51.366;12.348;2023-10-31T08:04:42;0.80;;;0.50;;
18190;SDS011;47004;51.366;12.348;2023-10-31T08:06:47;0.63;;;0.63;;
18190;SDS011;47004;51.366;12.348;2023-10-31T08:08:49;0.83;;;0.60;;
18190;SDS011;47004;51.366;12.348;2023-10-31T08:10:51;0.80;;;0.60;;
18190;SDS011;47004;51.366;12.348;2023-10-31T08:12:52;1.20;;;0.60;;
18190;SDS011;47004;51.366;12.348;2023-10-31T08:14:54;1.53;;;0.60;;
18190;SDS011;47004;51.366;12.348;2023-10-31T08:16:56;0.70;;;0.70;;
18190;SDS011;47004;51.366;12.348;2023-10-31T08:18:58;1.40;;;0.67;;
18190;SDS011;47004;51.366;12.348;2023-10-31T08:21:01;3.13;;;1.00;;
18190;SDS011;47004;51.366;12.348;2023-10-31T08:23:04;1.53;;;0.60;;
18190;SDS011;47004;51.366;12.348;2023-10-31T08:25:06;1.33;;;0.70;;
18190;SDS011;47004;51.366;12.348;2023-10-31T08:27:08;3.27;;;0.60;;
18190;SDS011;47004;51.366;12.348;2023-10-31T08:29:10;1.40;;;0.60;;
18190;SDS011;47004;51.366;12.348;2023-10-31T08:31:12;1.23;;;0.50;;
18190;SDS011;47004;51.366;12.348;2023-10-31T08:33:15;0.73;;;0.50;;
18190;SDS011;47004;51.366;12.348;2023-10-31T08:35:17;1.00;;;0.40;;
18190;SDS011;47004;51.366;12.348;2023-10-31T08:37:23;1.93;;;0.67;;
18190;SDS011;47004;51.366;12.348;2023-10-31T08:39:25;1.40;;;0.63;;
18190;SDS011;47004;51.366;12.348;2023-10-31T08:41:27;0.80;;;0.50;;
18190;SDS011;47004;51.366;12.348;2023-10-31T08:43:28;1.03;;;0.50;;
18190;SDS011;47004;51.366;12.348;2023-10-31T08:45:30;0.50;;;0.50;;
18190;SDS011;47004;51.366;12.348;2023-10-31T08:47:32;1.30;;;0.50;;
18190;SDS011;47004;51.366;12.348;2023-10-31T08:49:33;1.13;;;0.40;;
18190;SDS011;47004;51.366;12.348;2023-10-31T08:51:35;1.27;;;0.37;;
18190;SDS011;47004;51.366;12.348;2023-10-31T08:53:39;1.20;;;0.40;;
18190;SDS011;47004;51.366;12.348;2023-10-31T08:55:41;1.57;;;0.53;;
18190;SDS011;47004;51.366;12.348;2023-10-31T08:57:44;2.77;;;0.60;;
18190;SDS011;47004;51.366;12.348;2023-10-31T08:59:46;2.90;;;0.60;;
18190;SDS011;47004;51.366;12.348;2023-10-31T09:01:47;1.20;;;0.40;;
18190;SDS011;47004;51.366;12.348;2023-10-31T09:03:49;1.00;;;0.50;;
18190;SDS011;47004;51.366;12.348;2023-10-31T09:05:51;0.90;;;0.40;;
18190;SDS011;47004;51.366;12.348;2023-10-31T09:07:53;0.40;;;0.40;;
18190;SDS011;47004;51.366;12.348;2023-10-31T09:09:56;1.00;;;0.50;;
18190;SDS011;47004;51.366;12.348;2023-10-31T09:11:58;1.93;;;0.50;;
18190;SDS011;47004;51.366;12.348;2023-10-31T09:14:00;1.20;;;0.47;;
18190;SDS011;47004;51.366;12.348;2023-10-31T09:16:02;0.33;;;0.30;;
18190;SDS011;47004;51.366;12.348;2023-10-31T09:18:04;1.30;;;0.67;;
18190;SDS011;47004;51.366;12.348;2023-10-31T09:20:07;2.07;;;0.70;;
18190;SDS011;47004;51.366;12.348;2023-10-31T09:22:09;0.90;;;0.50;;
18190;SDS011;47004;51.366;12.348;2023-10-31T09:24:11;1.03;;;0.40;;
18190;SDS011;47004;51.366;12.348;2023-10-31T09:26:14;0.97;;;0.50;;
18190;SDS011;47004;51.366;12.348;2023-10-31T09:28:17;0.37;;;0.30;;
18190;SDS011;47004;51.366;12.348;2023-10-31T09:30:22;4.43;;;0.40;;
18190;SDS011;47004;51.366;12.348;2023-10-31T09:32:24;3.77;;;1.00;;
18190;SDS011;47004;51.366;12.348;2023-10-31T09:34:26;1.20;;;0.43;;
18190;SDS011;47004;51.366;12.348;2023-10-31T09:36:28;0.40;;;0.40;;
18190;SDS011;47004;51.366;12.348;2023-10-31T09:38:30;0.80;;;0.30;;
18190;SDS011;47004;51.366;12.348;2023-10-31T09:40:32;0.40;;;0.23;;
18190;SDS011;47004;51.366;12.348;2023-10-31T09:42:35;1.70;;;0.40;;
18190;SDS011;47004;51.366;12.348;2023-10-31T09:44:37;2.30;;;0.30;;
18190;SDS011;47004;51.366;12.348;2023-10-31T09:46:39;1.10;;;0.50;;
18190;SDS011;47004;51.366;12.348;2023-10-31T09:48:42;0.70;;;0.40;;
18190;SDS011;47004;51.366;12.348;2023-10-31T09:50:45;0.30;;;0.30;;
18190;SDS011;47004;51.366;12.348;2023-10-31T09:52:46;0.67;;;0.30;;
18190;SDS011;47004;51.366;12.348;2023-10-31T09:54:49;1.03;;;0.30;;
18190;SDS011;47004;51.366;12.348;2023-10-31T09:56:50;1.27;;;0.27;;
18190;SDS011;47004;51.366;12.348;2023-10-31T09:58:54;0.37;;;0.30;;
18190;SDS011;47004;51.366;12.348;2023-10-31T10:00:59;0.63;;;0.63;;
18190;SDS011;47004;51.366;12.348;2023-10-31T10:03:01;1.50;;;0.27;;
18190;SDS011;47004;51.366;12.348;2023-10-31T10:05:02;0.47;;;0.20;;
18190;SDS011;47004;51.366;12.348;2023-10-31T10:07:05;2.30;;;0.30;;
18190;SDS011;47004;51.366;12.348;2023-10-31T10:09:07;0.60;;;0.30;;
18190;SDS011;47004;51.366;12.348;2023-10-31T10:11:09;0.40;;;0.30;;
18190;SDS011;47004;51.366;12.348;2023-10-31T10:13:12;1.03;;;0.50;;
18190;SDS011;47004;51.366;12.348;2023-10-31T10:15:15;2.97;;;0.30;;
18190;SDS011;47004;51.366;12.348;2023-10-31T10:17:19;6.13;;;0.30;;
18190;SDS011;47004;51.366;12.348;2023-10-31T10:19:23;1.93;;;0.30;;
18190;SDS011;47004;51.366;12.348;2023-10-31T10:21:24;2.97;;;0.60;;
18190;SDS011;47004;51.366;12.348;2023-10-31T10:23:26;3.23;;;1.07;;
18190;SDS011;47004;51.366;12.348;2023-10-31T10:25:28;1.60;;;0.93;;
18190;SDS011;47004;51.366;12.348;2023-10-31T10:27:30;1.00;;;0.60;;
18190;SDS011;47004;51.366;12.348;2023-10-31T10:29:31;1.03;;;0.40;;
18190;SDS011;47004;51.366;12.348;2023-10-31T10:31:35;0.83;;;0.40;;
18190;SDS011;47004;51.366;12.348;2023-10-31T10:33:37;0.27;;;0.27;;
18190;SDS011;47004;51.366;12.348;2023-10-31T10:35:39;1.93;;;0.23;;
18190;SDS011;47004;51.366;12.348;2023-10-31T10:37:41;0.20;;;0.20;;
18190;SDS011;47004;51.366;12.348;2023-10-31T10:39:45;0.33;;;0.20;;
18190;SDS011;47004;51.366;12.348;2023-10-31T10:41:52;0.43;;;0.37;;
18190;SDS011;47004;51.366;12.348;2023-10-31T10:44:01;0.83;;;0.30;;
18190;SDS011;47004;51.366;12.348;2023-10-31T10:46:05;1.80;;;0.20;;
18190;SDS011;47004;51.366;12.348;2023-10-31T10:48:15;2.07;;;0.40;;
18190;SDS011;47004;51.366;12.348;2023-10-31T10:50:19;0.70;;;0.30;;
18190;SDS011;47004;51.366;12.348;2023-10-31T10:52:22;0.20;;;0.20;;
18190;SDS011;47004;51.366;12.348;2023-10-31T10:54:31;0.93;;;0.30;;
18190;SDS011;47004;51.366;12.348;2023-10-31T10:56:37;0.30;;;0.30;;
18190;SDS011;47004;51.366;12.348;2023-10-31T10:58:44;0.57;;;0.40;;
18190;SDS011;47004;51.366;12.348;2023-10-31T11:00:53;0.40;;;0.40;;
18190;SDS011;47004;51.366;12.348;2023-10-31T11:02:56;0.40;;;0.30;;
18190;SDS011;47004;51.366;12.348;2023-10-31T11:05:00;0.20;;;0.20;;
18190;SDS011;47004;51.366;12.348;2023-10-31T11:07:03;2.23;;;0.47;;
18190;SDS011;47004;51.366;12.348;2023-10-31T11:09:06;0.30;;;0.30;;
18190;SDS011;47004;51.366;12.348;2023-10-31T11:11:09;0.93;;;0.43;;
18190;SDS011;47004;51.366;12.348;2023-10-31T11:13:12;0.50;;;0.40;;
18190;SDS011;47004;51.366;12.348;2023-10-31T11:15:15;0.73;;;0.50;;
18190;SDS011;47004;51.366;12.348;2023-10-31T11:17:20;0.80;;;0.40;;
18190;SDS011;47004;51.366;12.348;2023-10-31T11:19:25;0.90;;;0.40;;
18190;SDS011;47004;51.366;12.348;2023-10-31T11:21:30;0.50;;;0.47;;
18190;SDS011;47004;51.366;12.348;2023-10-31T11:23:32;0.60;;;0.30;;
18190;SDS011;47004;51.366;12.348;2023-10-31T11:25:34;1.83;;;0.40;;
18190;SDS011;47004;51.366;12.348;2023-10-31T11:27:44;0.60;;;0.40;;
18190;SDS011;47004;51.366;12.348;2023-10-31T11:29:46;1.90;;;0.40;;
18190;SDS011;47004;51.366;12.348;2023-10-31T11:31:49;0.73;;;0.30;;
18190;SDS011;47004;51.366;12.348;2023-10-31T11:33:51;2.20;;;0.33;;
18190;SDS011;47004;51.366;12.348;2023-10-31T11:35:59;2.07;;;0.50;;
18190;SDS011;47004;51.366;12.348;2023-10-31T11:38:04;0.50;;;0.40;;
18190;SDS011;47004;51.366;12.348;2023-10-31T11:40:20;0.93;;;0.30;;
18190;SDS011;47004;51.366;12.348;2023-10-31T11:42:23;1.20;;;0.73;;
18190;SDS011;47004;51.366;12.348;2023-10-31T11:44:26;0.97;;;0.50;;
18190;SDS011;47004;51.366;12.348;2023-10-31T11:46:27;1.53;;;0.60;;
18190;SDS011;47004;51.366;12.348;2023-10-31T11:48:44;1.20;;;0.40;;
18190;SDS011;47004;51.366;12.348;2023-10-31T11:50:47;2.00;;;0.40;;
18190;SDS011;47004;51.366;12.348;2023-10-31T11:52:59;0.50;;;0.47;;
18190;SDS011;47004;51.366;12.348;2023-10-31T11:55:08;0.90;;;0.50;;
18190;SDS011;47004;51.366;12.348;2023-10-31T11:57:10;3.50;;;0.60;;
18190;SDS011;47004;51.366;12.348;2023-10-31T11:59:12;1.63;;;0.63;;
18190;SDS011;47004;51.366;12.348;2023-10-31T12:01:14;0.60;;;0.50;;